메인 페이지
METAR-TAF:

METAR-TAF

공항 :

Richard Lloyd Jones Jr. Airport

털사, 오클라호마, 미국

위도: 36-02-33N, 경도: 095-59-22W, 고도: 194m

현재 날씨관측

예보는 18분 전, 00:53시(UTC)에 발표되었습니다.
5kt
온도 31°C
습도 43%
기압 1011 hPa
시정: 16.1km
맑음

METAR: KRVS 210053Z 18005KT 10SM CLR 31/17 A2985 RMK AO2 SLP110 T03060167

시각: 20:11 (01:11 UTC)

예보

예보는 1 시간 51분 전, 23:20시(UTC)에 발표되었습니다.
예보 대상 시간: 21일 00시부터 21일 24시까지 (UTC)
12kt, 순간 최대 풍속 20kt
시정: 10km
맑음
21일 0100시부터 (UTC)
12kt
시정: 10km
고도 25000ft 상공 구름 많음
21일 1000시부터 (UTC)
남남동6kt
시정: 10km
고도 10000ft 상공 구름 보통
고도 20000ft 상공 구름 많음
확률 30%
21일 11시부터 21일 15시까지 (UTC)
시정: 8.0km
고도 4000ft 상공 구름 많음, 적란운.
뇌우, 약한비
21일 1500시부터 (UTC)
8kt
시정: 9.7km
고도 2000ft 상공 구름 많음, 적란운.
뇌우, 약한비
일시적
21일 15시부터 21일 18시까지 (UTC)
시정: 6.4km
뇌우, 약한비
21일 1800시부터 (UTC)
북북동10kt
시정: 9.7km
고도 2000ft 상공 구름 많음, 적란운.
뇌우, 약한비
확률 30%
21일 18시부터 21일 24시까지 (UTC)
시정: 3.2km
고도 2000ft 상공 구름 많음, 적란운.
뇌우, 강한비

TAF: KRVS 202320Z 2100/2124 17012G20KT P6SM SKC FM210100 17012KT P6SM BKN250 FM211000 16006KT P6SM SCT100 BKN200 PROB30 2111/2115 5SM -TSRA BKN040CB FM211500 01008KT 6SM -TSRA BKN020CB TEMPO 2115/2118 4SM -TSRA FM211800 03010KT 6SM -TSRA BKN020CB PROB30 2118/2124 2SM +TSRA BKN020CB

4,000개 이상의 공항 관측 자료 및 예보 (METAR 및 TAF 보고).

지도상에서 검색 가능한 기상관측소가 노란 점과 빨간 점으로 표시되어 있습니다.

기상관측소 명을 보려면 표시 위로 마우스를 이동하세요.

날씨 관측과 예보를 보려면 클릭하세요.

지도 변경 : 확대하려면 엑스 표시가 있는 녹색 버튼, 축소하려면 빼기 표시가 있는 녹색 버튼, 다음 페이지의 지도를 보려면 녹색 화살표를 클릭하세요.


METAR-TAF: